createdAt,value
2023-02-24T00:01:37.948Z,95151.00
2023-02-24T00:07:11.067Z,95159.00
2023-02-24T00:12:54.667Z,95144.00
2023-02-24T00:18:23.735Z,95141.00
2023-02-24T00:23:54.912Z,95134.00
2023-02-24T00:35:27.285Z,95124.00
2023-02-24T00:41:11.422Z,95122.00
2023-02-24T00:46:52.149Z,95125.00
2023-02-24T00:52:21.732Z,95126.00
2023-02-24T00:57:57.382Z,95122.00
2023-02-24T01:03:30.002Z,95114.00
2023-02-24T01:09:08.552Z,95100.00
2023-02-24T01:14:37.325Z,95097.00
2023-02-24T01:20:19.033Z,95093.00
2023-02-24T01:25:48.531Z,95082.00
2023-02-24T01:31:24.032Z,95080.00
2023-02-24T01:36:56.705Z,95075.00
2023-02-24T01:42:27.547Z,95081.00
2023-02-24T01:48:01.855Z,95074.00
2023-02-24T01:53:32.299Z,95077.00
2023-02-24T01:59:06.220Z,95072.00
2023-02-24T02:04:48.480Z,95057.00
2023-02-24T02:10:19.218Z,95053.00
2023-02-24T02:16:13.777Z,95038.00
2023-02-24T02:21:48.419Z,95029.00
2023-02-24T02:27:23.425Z,95032.00
2023-02-24T02:33:04.906Z,95029.00
2023-02-24T02:38:52.704Z,95033.00
2023-02-24T02:45:01.505Z,95034.00
2023-02-24T02:50:53.104Z,95037.00
2023-02-24T02:56:42.149Z,95027.00
2023-02-24T03:02:13.406Z,95027.00
2023-02-24T03:07:56.352Z,95023.00
2023-02-24T03:13:28.171Z,95014.00
2023-02-24T03:19:07.407Z,95019.00
2023-02-24T03:25:01.978Z,95027.00
2023-02-24T03:30:41.534Z,95021.00
2023-02-24T03:36:15.165Z,95008.00
2023-02-24T03:41:56.307Z,95010.00
2023-02-24T03:47:33.474Z,95004.00
2023-02-24T03:53:22.478Z,95005.00
2023-02-24T03:59:15.313Z,95010.00
2023-02-24T04:05:15.065Z,94985.00
2023-02-24T04:10:58.844Z,94987.00
2023-02-24T04:16:40.183Z,94984.00
2023-02-24T04:22:14.275Z,94982.00
2023-02-24T04:27:45.585Z,94976.00
2023-02-24T04:33:21.117Z,94973.00
2023-02-24T04:38:50.775Z,94966.00
2023-02-24T04:44:26.997Z,94960.00
2023-02-24T04:49:57.435Z,94958.00
2023-02-24T04:55:29.602Z,94945.00
2023-02-24T05:00:57.953Z,94933.00
2023-02-24T05:06:32.904Z,94933.00
2023-02-24T05:12:05.238Z,94924.00
2023-02-24T05:17:35.529Z,94915.00
2023-02-24T05:23:03.704Z,94900.00
2023-02-24T05:28:32.011Z,94903.00
2023-02-24T05:34:05.519Z,94897.00
2023-02-24T05:39:35.174Z,94890.00
2023-02-24T05:45:05.621Z,94872.00
2023-02-24T05:50:34.752Z,94883.00
2023-02-24T05:56:05.882Z,94886.00
2023-02-24T06:01:37.554Z,94879.00
2023-02-24T06:07:14.316Z,94879.00
2023-02-24T06:12:46.256Z,94867.00
2023-02-24T06:18:17.525Z,94874.00
2023-02-24T06:23:46.037Z,94884.00
2023-02-24T06:29:18.213Z,94880.00
2023-02-24T06:34:47.582Z,94883.00
2023-02-24T06:40:20.267Z,94890.00
2023-02-24T06:45:50.333Z,94894.00
2023-02-24T06:51:18.713Z,94892.00
2023-02-24T06:56:47.854Z,94886.00
2023-02-24T07:02:17.815Z,94893.00
2023-02-24T07:07:46.088Z,94892.00
2023-02-24T07:13:16.242Z,94892.00
2023-02-24T07:18:48.343Z,94883.00
2023-02-24T07:24:33.176Z,94880.00
2023-02-24T07:30:06.341Z,94878.00
2023-02-24T07:35:35.922Z,94886.00
2023-02-24T07:41:06.685Z,94871.00
2023-02-24T07:46:34.981Z,94869.00
2023-02-24T07:52:03.465Z,94868.00
2023-02-24T07:57:33.353Z,94870.00
2023-02-24T08:03:02.116Z,94863.00
2023-02-24T08:08:30.239Z,94862.00
2023-02-24T08:13:59.300Z,94861.00
2023-02-24T08:19:39.791Z,94856.00
2023-02-24T08:25:08.304Z,94838.00
2023-02-24T08:30:46.474Z,94836.00
2023-02-24T08:36:21.428Z,94828.00
2023-02-24T08:41:51.726Z,94821.00
2023-02-24T08:47:31.105Z,94828.00
2023-02-24T08:53:00.975Z,94813.00
2023-02-24T08:58:29.205Z,94811.00
2023-02-24T09:03:59.499Z,94814.00
2023-02-24T09:09:28.223Z,94806.00
2023-02-24T09:15:07.691Z,94800.00
2023-02-24T09:20:56.572Z,94800.00
2023-02-24T09:26:24.921Z,94783.00
2023-02-24T09:31:55.605Z,94789.00
2023-02-24T09:37:26.501Z,94786.00
2023-02-24T09:42:58.562Z,94779.00
2023-02-24T09:48:54.656Z,94768.00
2023-02-24T09:54:24.857Z,94765.00
2023-02-24T10:00:33.935Z,94748.00
2023-02-24T10:06:26.914Z,94749.00
2023-02-24T10:12:05.391Z,94735.00
2023-02-24T10:17:40.459Z,94721.00
2023-02-24T10:23:45.168Z,94723.00
2023-02-24T10:30:11.521Z,94714.00
2023-02-24T10:35:39.865Z,94708.00
2023-02-24T10:41:10.366Z,94715.00
2023-02-24T10:46:42.031Z,94705.00
2023-02-24T10:52:33.490Z,94702.00
2023-02-24T10:58:06.887Z,94694.00
2023-02-24T11:03:46.426Z,94678.00
2023-02-24T11:09:20.384Z,94674.00
2023-02-24T11:15:39.528Z,94658.00
2023-02-24T11:21:11.602Z,94643.00
2023-02-24T11:26:42.235Z,94632.00
2023-02-24T11:32:58.570Z,94625.00
2023-02-24T11:38:50.898Z,94620.00
2023-02-24T11:44:31.363Z,94611.00
2023-02-24T11:50:22.943Z,94597.00
2023-02-24T11:56:03.110Z,94578.00
2023-02-24T12:01:52.093Z,94572.00
2023-02-24T12:07:34.821Z,94567.00
2023-02-24T12:13:22.257Z,94561.00
2023-02-24T12:18:52.539Z,94546.00
2023-02-24T12:24:24.071Z,94531.00
2023-02-24T12:30:48.726Z,94535.00
2023-02-24T12:37:17.771Z,94519.00
2023-02-24T12:43:15.405Z,94517.00
2023-02-24T12:48:59.471Z,94509.00
2023-02-24T12:55:00.470Z,94514.00
2023-02-24T13:00:51.549Z,94500.00
2023-02-24T13:06:38.872Z,94494.00
2023-02-24T13:12:52.826Z,94485.00
2023-02-24T13:18:25.962Z,94488.00
2023-02-24T13:24:02.857Z,94479.00
2023-02-24T13:29:41.731Z,94464.00
2023-02-24T13:35:26.073Z,94456.00
2023-02-24T13:41:24.318Z,94447.00
2023-02-24T13:47:16.956Z,94443.00
2023-02-24T13:53:51.088Z,94444.00
2023-02-24T13:59:55.266Z,94429.00
2023-02-24T14:05:36.298Z,94436.00
2023-02-24T14:11:04.488Z,94442.00
2023-02-24T14:16:40.014Z,94433.00
2023-02-24T14:22:20.434Z,94427.00
2023-02-24T14:27:52.255Z,94409.00
2023-02-24T14:33:54.943Z,94407.00
2023-02-24T14:39:31.109Z,94396.00
2023-02-24T14:44:59.752Z,94412.00
2023-02-24T14:50:33.398Z,94400.00
2023-02-24T14:56:13.950Z,94388.00
2023-02-24T15:01:48.779Z,94380.00
2023-02-24T15:07:27.769Z,94377.00
2023-02-24T15:13:13.348Z,94373.00
2023-02-24T15:18:42.321Z,94372.00
2023-02-24T15:24:25.082Z,94327.00
2023-02-24T15:30:30.788Z,94356.00
2023-02-24T15:36:00.499Z,94354.00
2023-02-24T15:41:43.418Z,94338.00
2023-02-24T15:47:34.473Z,94325.00
2023-02-24T15:53:05.100Z,94313.00
2023-02-24T15:58:34.781Z,94304.00
2023-02-24T16:04:04.885Z,94303.00
2023-02-24T16:09:38.042Z,94297.00
2023-02-24T16:15:16.882Z,94285.00
2023-02-24T16:20:54.377Z,94282.00
2023-02-24T16:26:23.744Z,94267.00
2023-02-24T16:31:54.120Z,94275.00
2023-02-24T16:37:31.440Z,94270.00
2023-02-24T16:42:59.820Z,94287.00
2023-02-24T16:48:32.275Z,94295.00
2023-02-24T16:54:00.435Z,94294.00
2023-02-24T16:59:28.725Z,94298.00
2023-02-24T17:04:56.965Z,94302.00
2023-02-24T17:10:26.187Z,94287.00
2023-02-24T17:15:55.517Z,94290.00
2023-02-24T17:21:24.438Z,94306.00
2023-02-24T17:26:52.765Z,94299.00
2023-02-24T17:32:20.819Z,94294.00
2023-02-24T17:37:49.173Z,94317.00
2023-02-24T17:43:17.127Z,94275.00
2023-02-24T17:48:46.571Z,94269.00
2023-02-24T17:54:14.556Z,94272.00
2023-02-24T17:59:46.239Z,94249.00
2023-02-24T18:05:14.800Z,94227.00
2023-02-24T18:10:45.928Z,94231.00
2023-02-24T18:16:15.382Z,94225.00
2023-02-24T18:21:44.904Z,94206.00
2023-02-24T18:27:12.808Z,94203.00
2023-02-24T18:32:44.758Z,94195.00
2023-02-24T18:38:12.928Z,94183.00
2023-02-24T18:43:41.086Z,94190.00
2023-02-24T18:49:09.114Z,94180.00
2023-02-24T18:54:39.131Z,94162.00
2023-02-24T19:00:08.177Z,94160.00
2023-02-24T19:05:38.849Z,94158.00
2023-02-24T19:11:16.121Z,94154.00
2023-02-24T19:16:45.045Z,94159.00
2023-02-24T19:22:14.578Z,94158.00
2023-02-24T19:27:42.677Z,94152.00
2023-02-24T19:33:13.576Z,94155.00
2023-02-24T19:38:43.422Z,94161.00
2023-02-24T19:44:12.722Z,94191.00
2023-02-24T19:49:41.486Z,94186.00
2023-02-24T19:55:12.123Z,94182.00
2023-02-24T20:00:41.368Z,94173.00
2023-02-24T20:06:31.450Z,94168.00
2023-02-24T20:12:02.426Z,94171.00
2023-02-24T20:17:34.506Z,94168.00
2023-02-24T20:23:02.335Z,94165.00
2023-02-24T20:28:31.573Z,94142.00
2023-02-24T20:34:00.322Z,94147.00
2023-02-24T20:39:28.324Z,94145.00
2023-02-24T20:44:56.656Z,94147.00
2023-02-24T20:50:27.380Z,94153.00
2023-02-24T20:56:10.059Z,94173.00
2023-02-24T21:01:52.158Z,94169.00
2023-02-24T21:07:24.222Z,94167.00
2023-02-24T21:12:56.660Z,94163.00
2023-02-24T21:18:30.560Z,94165.00
2023-02-24T21:23:58.780Z,94187.00
2023-02-24T21:29:35.920Z,94182.00
2023-02-24T21:35:06.925Z,94176.00
2023-02-24T21:40:37.389Z,94177.00
2023-02-24T21:46:09.222Z,94166.00
2023-02-24T21:51:37.648Z,94159.00
2023-02-24T21:57:06.012Z,94153.00
2023-02-24T22:02:36.437Z,94129.00
2023-02-24T22:08:04.511Z,94134.00
2023-02-24T22:13:32.474Z,94138.00
2023-02-24T22:19:01.015Z,94156.00
2023-02-24T22:24:29.302Z,94152.00
2023-02-24T22:29:57.464Z,94153.00
2023-02-24T22:35:25.791Z,94163.00
2023-02-24T22:41:03.451Z,94125.00
2023-02-24T22:46:35.104Z,94120.00
2023-02-24T22:52:08.301Z,94110.00
2023-02-24T22:57:38.938Z,94123.00
2023-02-24T23:03:16.864Z,94137.00
2023-02-24T23:08:47.511Z,94176.00
2023-02-24T23:14:16.544Z,94221.00
2023-02-24T23:19:44.771Z,94227.00
2023-02-24T23:25:12.957Z,94236.00
2023-02-24T23:30:41.895Z,94240.00
2023-02-24T23:36:10.254Z,94245.00
2023-02-24T23:41:39.749Z,94263.00
2023-02-24T23:47:08.056Z,94268.00
2023-02-24T23:52:35.825Z,94274.00
2023-02-24T23:58:04.400Z,94274.00
